METAR AND TAF INFORMATION
METAR FOR EGKB
ADDS - METARS form results

(1526 UTC 25 May 2019)
Data provider http://aviationweather.gov/metar/data/
 
METAR text: EGKB 251520Z 31007KT 250V350 CAVOK 21/08 Q1018
Conditions at: EGKB (BIGGIN HILL , GB) observed 1520 UTC 25 May 2019
Temperature: 21.0°C (70°F)
Dewpoint: 8.0°C (46°F) [RH = 43%]
Pressure (altimeter): 30.06 inches Hg (1018.0 mb)
Winds: from the NW (310 degrees) at 8 MPH (7 knots; 3.6 m/s)
Visibility: 6 or more miles (10+ km)
Ceiling: ceiling and visibility are OK
Clouds: unknown
Weather: no significant weather observed at this time

METAR text: EGKB 251450Z 29008KT 230V350 CAVOK 21/09 Q1018
Conditions at: EGKB (BIGGIN HILL , GB) observed 1450 UTC 25 May 2019
Temperature: 21.0°C (70°F)
Dewpoint: 9.0°C (48°F) [RH = 46%]
Pressure (altimeter): 30.06 inches Hg (1018.0 mb)
Winds: from the WNW (290 degrees) at 9 MPH (8 knots; 4.1 m/s)
Visibility: 6 or more miles (10+ km)
Ceiling: ceiling and visibility are OK
Clouds: unknown
Weather: no significant weather observed at this time

Forecast for: EGKB (BIGGIN HILL , GB)
Text: TAF EGKB 251400Z 2515/2522 27007KT 9999 SCT045
Forecast period: 1500 to 2200 UTC 25 May 2019
Forecast type: FROM: standard forecast or significant change
Winds: from the W (270 degrees) at 8 MPH (7 knots; 3.6 m/s)
Visibility: 6 or more miles 10+ km)
Ceiling: at least 12,000 feet AGL
Clouds: scattered clouds at 4500 feet AGL
Weather: no significant weather forecast for this period

 AIRPORT MAP

 RUNWAY INFORMATION
Runway 03 Runway length 5912 ft Runway width 148 ft
Runway elevation 577 ft Runway displaced threshold 790 ft Runway heading 26
Runway 21 Runway length 5912 ft Runway width 148 ft
Runway elevation 517 ft Runway displaced threshold 0 ft Runway heading 206
Runway 11 Runway length 2598 ft Runway width 59 ft
Runway elevation 586 ft Runway displaced threshold 0 ft Runway heading 105
Runway 29 Runway length 2598 ft Runway width 59 ft
Runway elevation 598 ft Runway displaced threshold 0 ft Runway heading 285

 AIRPORT FREQUENCIES
Type APP Name APP Frequency 129.4 MHZ
Type ATIS Name ATIS Frequency 135.675 MHZ
Type RDR Name THAMES RDR Frequency 132.7 MHZ
Type TWR Name TWR Frequency 134.8 MHZ

 AIRPORT NEAR NAVIGATION AIDS
Type VOR-DME Name Biggin Frequency 115100 KHZ